Terminal Aerodrome Forecast
Issued by NWS

Home | Current Version | Previous Version | Text Only | Print | Product List | Glossary On
Versions: 1 2 3 4 5 6 7 8 9 10 11 12 13 14 15 16
194
FTUS42 KTAE 212339
TAFABY
TAF
KABY 212339Z 2200/2224 15006KT 4SM -RA BKN025 OVC060
     FM220400 13005KT 3SM RA BR BKN015 OVC025
     FM221000 10005KT 3SM -RA BR VCSH OVC007
     FM221500 10009KT P6SM VCSH OVC015
     FM222000 11009KT P6SM SCT025=

USA.gov is the U.S. government's official web portal to all federal, state and local government web resources and services.